Flight Track Log - Related Links

Times and Time Zones

All times are in EDT time to prevent confusion due to time zone crossing. See the DAL8889 flight status page for this flight to view local times or setup timezone preferences in your user account.

Time Position Orientation Groundspeed Altitude Reporting Facility
EDT Latitude Longitude Course Direction KTS MPH feet Rate Location/Type
Sun 04:03:04 PM 44.8389 -93.1911 113° Southeast 200 230 3,900  Level Minneapolis Center
Sun 04:04:06 PM 44.8019 -93.1028 120° Southeast 256 295 7,900 3,415 Climbing Minneapolis Center
Sun 04:05:07 PM 44.7722 -92.9953 111° Southeast 289 333 10,900 2,829 Climbing Minneapolis Center
Sun 04:06:09 PM 44.7364 -92.8611 111° Southeast 362 417 13,700 3,048 Climbing Minneapolis Center
Sun 04:07:11 PM 44.6914 -92.7236 115° Southeast 384 442 17,200 2,976 Climbing Minneapolis Center
Sun 04:08:00 PM 44.6756 -92.6018 113° Southeast  Level Estimated
Sun 04:08:12 PM 44.6414 -92.5850 117° Southeast 395 455 19,800  Level Minneapolis Center
Sun 04:09:14 PM 44.5864 -92.4414 118° Southeast 412 474 22,500 1,561 Climbing Minneapolis Center
Sun 04:10:15 PM 44.5283 -92.2878 118° Southeast 440 506 23,000 244 Climbing Minneapolis Center
Sun 04:11:17 PM 44.4694 -92.1264 117° Southeast 460 529 23,000  Level Minneapolis Center
Sun 04:12:19 PM 44.4100 -91.9697 118° Southeast 460 529 23,000  Level Minneapolis Center
Sun 04:13:20 PM 44.3450 -91.7967 118° Southeast 426 490 23,000 1,024 Level Minneapolis Center
Sun 04:14:22 PM 44.2817 -91.6589 123° Southeast 425 489 25,100 1,951 Climbing Minneapolis Center
Sun 04:15:23 PM 44.2147 -91.5169 123° Southeast 432 497 27,000 927 Climbing Minneapolis Center
Sun 04:16:25 PM 44.1528 -91.3608 119° Southeast 453 521 27,000  Level Minneapolis Center
Sun 04:17:27 PM 44.0881 -91.1872 117° Southeast 457 526 27,000  Level Minneapolis Center
Sun 04:18:28 PM 44.0383 -91.0275 113° Southeast 456 525 27,000  Level Minneapolis Center
Sun 04:19:30 PM 43.9878 -90.8686 114° Southeast 455 524 27,000  Level Minneapolis Center
Sun 04:20:32 PM 43.9361 -90.7094 114° Southeast 455 524 27,000  Level Minneapolis Center
Sun 04:21:33 PM 43.8844 -90.5486 114° Southeast 455 524 27,000  Level Minneapolis Center
Sun 04:22:35 PM 43.8325 -90.3919 115° Southeast 454 522 27,000 -435 Level Minneapolis Center
Sun 04:23:37 PM 43.7806 -90.2322 114° Southeast 454 522 26,100 -1,306 Descending Minneapolis Center
Sun 04:24:39 PM 43.7183 -90.0431 114° Southeast 454 522 24,300 -1,024 Descending Minneapolis Center
Sun 04:25:40 PM 43.6669 -89.8858 114° Southeast 453 521 24,000 -216 Descending Minneapolis Center
Sun 04:26:30 PM 43.6233 -89.7603 116° Southeast 452 520 23,900 -1,009 Descending Chicago Center
Sun 04:27:33 PM 43.5722 -89.6067 115° Southeast 447 514 22,100 -2,304 Descending Chicago Center
Sun 04:28:35 PM 43.5269 -89.4686 114° Southeast 403 464 19,100 -2,661 Descending Chicago Center
Sun 04:29:37 PM 43.4733 -89.3133 115° Southeast 379 436 16,600 -2,177 Descending Chicago Center
Sun 04:30:39 PM 43.4300 -89.1856 115° Southeast 374 430 14,600 -1,839 Descending Chicago Center
Sun 04:31:41 PM 43.3883 -89.0636 115° Southeast 359 413 12,800 -2,081 Descending Chicago Center
Sun 04:32:43 PM 43.3467 -88.9431 115° Southeast 355 409 10,300 -1,355 Descending Chicago Center
Sun 04:33:45 PM 43.3036 -88.8189 115° Southeast 359 413 10,000 -145 Descending Chicago Center
Sun 04:34:47 PM 43.2508 -88.6692 116° Southeast 366 421 10,000  Level Chicago Center
Sun 04:35:49 PM 43.2078 -88.5444 115° Southeast 366 421 10,000  Level Chicago Center
Sun 04:36:51 PM 43.1672 -88.4261 115° Southeast 351 404 10,000 -816 Level Chicago Center
Sun 04:37:54 PM 43.1322 -88.3269 116° Southeast 299 344 8,300 -1,632 Descending Chicago Center
Sun 04:38:56 PM 43.1097 -88.2250 107° East 289 333 6,600 -1,597 Descending Chicago Center
Sun 04:39:58 PM 43.1008 -88.1008 96° East 278 320 5,000 -1,113 Descending Chicago Center
Sun 04:41:00 PM 43.0953 -88.0153 95° East 240 276 4,300 -677 Descending Chicago Center
Sun 04:42:02 PM 43.0892 -87.9422 97° East 209 241 3,600 -726 Descending Chicago Center
Sun 04:43:04 PM 43.0675 -87.8892 119° Southeast 203 234 2,800 -726 Descending Chicago Center
Sun 04:44:06 PM 43.0294 -87.8786 169° South 164 189 2,100 -581 Descending Chicago Center
Sun 04:45:08 PM 42.9917 -87.8844 186° South 144 166 1,600 -484 Descending Chicago Center
Sun 04:47:00 PM 42.9469 -87.8971 180° South  Level Estimated
Sun 04:54:00 PM 42.9469 -87.8971 180° South  Level Estimated

Login

Don't have an account? Register now (free) for customized features, flight alerts, and more!